createdAt,value
2022-09-03T00:01:39.054Z,20.91
2022-09-03T00:04:20.690Z,20.90
2022-09-03T00:07:03.514Z,20.87
2022-09-03T00:09:41.555Z,20.85
2022-09-03T00:12:17.086Z,20.83
2022-09-03T00:14:51.758Z,20.81
2022-09-03T00:17:26.622Z,20.79
2022-09-03T00:20:00.073Z,20.77
2022-09-03T00:22:34.139Z,20.75
2022-09-03T00:25:07.384Z,20.71
2022-09-03T00:27:41.441Z,20.69
2022-09-03T00:30:14.812Z,20.67
2022-09-03T00:32:52.303Z,20.64
2022-09-03T00:35:27.956Z,20.62
2022-09-03T00:37:57.287Z,20.62
2022-09-03T00:41:02.424Z,20.56
2022-09-03T00:43:50.367Z,20.53
2022-09-03T00:46:26.705Z,20.51
2022-09-03T00:49:26.911Z,20.46
2022-09-03T00:52:08.204Z,20.46
2022-09-03T00:54:49.905Z,20.42
2022-09-03T00:57:36.353Z,20.39
2022-09-03T01:00:12.642Z,20.38
2022-09-03T01:03:02.838Z,20.35
2022-09-03T01:05:48.480Z,20.33
2022-09-03T01:08:36.980Z,20.30
2022-09-03T01:11:18.083Z,20.30
2022-09-03T01:13:55.541Z,20.27
2022-09-03T01:16:36.429Z,20.23
2022-09-03T01:19:18.385Z,20.21
2022-09-03T01:22:11.763Z,20.18
2022-09-03T01:25:14.110Z,20.13
2022-09-03T01:28:00.757Z,20.11
2022-09-03T01:30:34.898Z,20.10
2022-09-03T01:33:14.214Z,20.08
2022-09-03T01:35:49.060Z,20.04
2022-09-03T01:38:28.138Z,20.01
2022-09-03T01:41:24.059Z,19.96
2022-09-03T01:44:04.292Z,19.93
2022-09-03T01:46:39.512Z,19.92
2022-09-03T01:49:22.865Z,19.89
2022-09-03T01:52:03.995Z,19.88
2022-09-03T01:54:59.324Z,19.85
2022-09-03T01:57:50.259Z,19.82
2022-09-03T02:00:22.462Z,19.82
2022-09-03T02:02:53.477Z,19.82
2022-09-03T02:05:25.376Z,19.79
2022-09-03T02:08:01.082Z,19.78
2022-09-03T02:10:33.754Z,19.77
2022-09-03T02:13:07.970Z,19.75
2022-09-03T02:15:42.728Z,19.71
2022-09-03T02:18:19.859Z,19.69
2022-09-03T02:20:50.191Z,19.67
2022-09-03T02:23:18.824Z,19.64
2022-09-03T02:26:00.836Z,19.60
2022-09-03T02:28:33.361Z,19.59
2022-09-03T02:31:03.938Z,19.57
2022-09-03T02:33:40.804Z,19.55
2022-09-03T02:36:13.237Z,19.54
2022-09-03T02:38:44.621Z,19.50
2022-09-03T02:41:15.239Z,19.48
2022-09-03T02:43:49.166Z,19.46
2022-09-03T02:46:27.159Z,19.44
2022-09-03T02:48:56.278Z,19.43
2022-09-03T02:51:24.877Z,19.42
2022-09-03T02:53:55.421Z,19.42
2022-09-03T02:56:26.005Z,19.41
2022-09-03T02:58:54.437Z,19.41
2022-09-03T03:01:24.834Z,19.39
2022-09-03T03:03:53.716Z,19.38
2022-09-03T03:06:22.573Z,19.37
2022-09-03T03:08:52.449Z,19.34
2022-09-03T03:11:25.023Z,19.34
2022-09-03T03:13:53.995Z,19.33
2022-09-03T03:16:24.024Z,19.31
2022-09-03T03:18:52.866Z,19.31
2022-09-03T03:21:21.519Z,19.28
2022-09-03T03:23:50.286Z,19.25
2022-09-03T03:26:21.274Z,19.22
2022-09-03T03:28:51.293Z,19.20
2022-09-03T03:31:22.955Z,19.17
2022-09-03T03:33:56.385Z,19.14
2022-09-03T03:36:27.636Z,19.12
2022-09-03T03:38:57.456Z,19.08
2022-09-03T03:41:31.408Z,19.05
2022-09-03T03:44:02.402Z,19.00
2022-09-03T03:46:34.867Z,18.97
2022-09-03T03:49:06.880Z,18.95
2022-09-03T03:51:36.132Z,18.92
2022-09-03T03:54:05.614Z,18.90
2022-09-03T03:56:35.390Z,18.87
2022-09-03T03:59:04.218Z,18.86
2022-09-03T04:01:33.024Z,18.86
2022-09-03T04:04:01.662Z,18.83
2022-09-03T04:06:31.441Z,18.83
2022-09-03T04:08:59.888Z,18.82
2022-09-03T04:11:28.426Z,18.81
2022-09-03T04:13:56.812Z,18.79
2022-09-03T04:16:27.964Z,18.78
2022-09-03T04:18:57.722Z,18.76
2022-09-03T04:21:28.777Z,18.75
2022-09-03T04:23:59.857Z,18.74
2022-09-03T04:26:32.259Z,18.74
2022-09-03T04:29:01.987Z,18.72
2022-09-03T04:31:31.790Z,18.73
2022-09-03T04:34:00.736Z,18.71
2022-09-03T04:36:31.595Z,18.72
2022-09-03T04:39:02.772Z,18.71
2022-09-03T04:41:33.022Z,18.71
2022-09-03T04:44:01.584Z,18.73
2022-09-03T04:46:33.907Z,18.74
2022-09-03T04:49:03.314Z,18.77
2022-09-03T04:51:32.268Z,18.79
2022-09-03T04:54:03.513Z,18.81
2022-09-03T04:56:34.890Z,18.83
2022-09-03T04:59:06.081Z,18.86
2022-09-03T05:01:37.210Z,18.90
2022-09-03T05:04:06.727Z,18.93
2022-09-03T05:06:36.978Z,18.96
2022-09-03T05:09:07.544Z,19.00
2022-09-03T05:11:35.977Z,19.06
2022-09-03T05:14:05.896Z,19.08
2022-09-03T05:16:34.459Z,19.11
2022-09-03T05:19:06.132Z,19.15
2022-09-03T05:21:36.141Z,19.19
2022-09-03T05:24:06.953Z,19.23
2022-09-03T05:26:40.300Z,19.29
2022-09-03T05:29:09.545Z,19.36
2022-09-03T05:31:40.184Z,19.42
2022-09-03T05:34:10.202Z,19.48
2022-09-03T05:36:47.165Z,19.55
2022-09-03T05:39:16.919Z,19.64
2022-09-03T05:41:45.922Z,19.72
2022-09-03T05:44:14.525Z,19.79
2022-09-03T05:46:42.914Z,19.87
2022-09-03T05:49:11.744Z,19.94
2022-09-03T05:51:40.612Z,20.02
2022-09-03T05:54:09.712Z,20.10
2022-09-03T05:56:41.366Z,20.16
2022-09-03T05:59:13.827Z,20.23
2022-09-03T06:01:50.429Z,20.31
2022-09-03T06:04:21.015Z,20.40
2022-09-03T06:06:50.099Z,20.52
2022-09-03T06:09:20.737Z,20.69
2022-09-03T06:11:52.480Z,20.90
2022-09-03T06:14:22.148Z,21.12
2022-09-03T06:16:53.197Z,21.30
2022-09-03T06:19:22.044Z,21.42
2022-09-03T06:21:50.693Z,21.49
2022-09-03T06:24:24.694Z,21.57
2022-09-03T06:26:56.382Z,21.65
2022-09-03T06:29:24.791Z,21.73
2022-09-03T06:31:53.197Z,21.82
2022-09-03T06:34:22.817Z,21.89
2022-09-03T06:36:53.799Z,21.94
2022-09-03T06:39:23.453Z,22.00
2022-09-03T06:41:53.609Z,22.07
2022-09-03T06:44:23.376Z,22.15
2022-09-03T06:46:53.577Z,22.25
2022-09-03T06:49:22.196Z,22.32
2022-09-03T06:51:50.657Z,22.43
2022-09-03T06:54:19.044Z,22.55
2022-09-03T06:56:47.458Z,22.66
2022-09-03T06:59:16.717Z,22.77
2022-09-03T07:01:46.914Z,22.87
2022-09-03T07:04:19.382Z,22.93
2022-09-03T07:06:49.532Z,23.01
2022-09-03T07:09:19.184Z,23.09
2022-09-03T07:11:49.299Z,23.15
2022-09-03T07:14:19.815Z,23.23
2022-09-03T07:16:50.917Z,23.34
2022-09-03T07:19:19.869Z,23.47
2022-09-03T07:21:50.697Z,23.60
2022-09-03T07:24:22.390Z,23.73
2022-09-03T07:26:51.342Z,23.84
2022-09-03T07:29:23.795Z,23.96
2022-09-03T07:31:53.813Z,24.08
2022-09-03T07:34:26.759Z,24.18
2022-09-03T07:36:56.129Z,24.28
2022-09-03T07:39:24.629Z,24.36
2022-09-03T07:41:53.120Z,24.48
2022-09-03T07:44:21.594Z,24.58
2022-09-03T07:46:51.933Z,24.66
2022-09-03T07:49:23.096Z,24.73
2022-09-03T07:51:54.157Z,24.81
2022-09-03T07:54:24.159Z,24.89
2022-09-03T07:56:52.857Z,24.96
2022-09-03T07:59:23.110Z,25.05
2022-09-03T08:01:52.304Z,25.13
2022-09-03T08:04:23.070Z,25.22
2022-09-03T08:06:55.719Z,25.33
2022-09-03T08:09:24.567Z,25.41
2022-09-03T08:11:53.027Z,25.51
2022-09-03T08:14:22.146Z,25.63
2022-09-03T08:16:50.527Z,25.72
2022-09-03T08:19:23.358Z,25.84
2022-09-03T08:21:51.859Z,25.91
2022-09-03T08:24:21.367Z,25.98
2022-09-03T08:26:52.457Z,26.10
2022-09-03T08:29:23.583Z,26.19
2022-09-03T08:31:52.346Z,26.27
2022-09-03T08:34:22.405Z,26.35
2022-09-03T08:36:53.190Z,26.43
2022-09-03T08:39:21.619Z,26.48
2022-09-03T08:42:20.737Z,26.50
2022-09-03T08:44:51.745Z,26.64
2022-09-03T08:47:26.930Z,26.67
2022-09-03T08:50:01.159Z,26.70
2022-09-03T08:52:38.490Z,26.74
2022-09-03T08:55:23.504Z,26.76
2022-09-03T08:57:58.625Z,26.86
2022-09-03T09:00:33.958Z,26.93
2022-09-03T09:03:27.886Z,27.01
2022-09-03T09:06:08.563Z,27.13
2022-09-03T09:08:49.688Z,27.26
2022-09-03T09:11:41.459Z,27.43
2022-09-03T09:14:19.228Z,27.62
2022-09-03T09:17:00.797Z,27.77
2022-09-03T09:19:50.854Z,27.87
2022-09-03T09:22:31.008Z,27.98
2022-09-03T09:25:04.536Z,28.00
2022-09-03T09:27:34.459Z,27.98
2022-09-03T09:30:10.849Z,27.93
2022-09-03T09:32:39.279Z,27.93
2022-09-03T09:35:11.600Z,27.84
2022-09-03T09:37:51.768Z,27.80
2022-09-03T09:40:33.968Z,27.78
2022-09-03T09:43:08.509Z,27.78
2022-09-03T09:45:37.386Z,27.82
2022-09-03T09:48:15.318Z,27.84
2022-09-03T09:50:44.086Z,27.89
2022-09-03T09:53:18.636Z,27.93
2022-09-03T09:55:55.496Z,27.94
2022-09-03T09:58:27.027Z,27.96
2022-09-03T10:01:19.385Z,27.95
2022-09-03T10:03:52.603Z,28.00
2022-09-03T10:06:42.139Z,28.05
2022-09-03T10:09:15.976Z,28.06
2022-09-03T10:11:50.934Z,28.13
2022-09-03T10:14:26.294Z,28.15
2022-09-03T10:17:05.316Z,28.16
2022-09-03T10:20:06.425Z,28.16
2022-09-03T10:22:56.535Z,28.20
2022-09-03T10:25:39.094Z,28.19
2022-09-03T10:28:13.326Z,28.23
2022-09-03T10:31:16.289Z,28.23
2022-09-03T10:33:52.418Z,28.32
2022-09-03T10:36:27.429Z,28.38
2022-09-03T10:39:07.175Z,28.56
2022-09-03T10:41:55.963Z,28.88
2022-09-03T10:44:51.640Z,29.39
2022-09-03T10:47:39.152Z,29.89
2022-09-03T10:50:16.635Z,30.44
2022-09-03T10:53:08.590Z,30.99
2022-09-03T10:55:51.160Z,31.56
2022-09-03T10:58:56.955Z,31.98
2022-09-03T11:01:37.455Z,32.26
2022-09-03T11:04:23.619Z,32.53
2022-09-03T11:06:56.342Z,32.92
2022-09-03T11:09:32.812Z,33.40
2022-09-03T11:12:07.119Z,33.95
2022-09-03T11:14:44.175Z,34.46
2022-09-03T11:17:17.941Z,35.04
2022-09-03T11:19:52.649Z,35.56
2022-09-03T11:22:23.571Z,36.04
2022-09-03T11:24:58.546Z,36.54
2022-09-03T11:27:38.226Z,36.90
2022-09-03T11:30:11.565Z,37.18
2022-09-03T11:32:54.265Z,37.45
2022-09-03T11:35:29.914Z,37.63
2022-09-03T11:38:02.340Z,37.74
2022-09-03T11:40:35.792Z,38.04
2022-09-03T11:43:13.098Z,38.44
2022-09-03T11:45:43.397Z,38.83
2022-09-03T11:48:38.010Z,39.33
2022-09-03T11:51:17.844Z,39.91
2022-09-03T11:53:57.067Z,40.32
2022-09-03T11:56:26.697Z,40.46
2022-09-03T11:59:16.659Z,40.05
2022-09-03T12:01:53.374Z,39.39
2022-09-03T12:04:28.349Z,38.84
2022-09-03T12:07:27.632Z,38.27
2022-09-03T12:10:24.872Z,37.76
2022-09-03T12:13:15.262Z,37.31
2022-09-03T12:16:40.098Z,36.92
2022-09-03T12:19:21.394Z,36.72
2022-09-03T12:21:51.225Z,36.63
2022-09-03T12:24:23.388Z,36.53
2022-09-03T12:26:51.871Z,36.44
2022-09-03T12:29:27.675Z,36.46
2022-09-03T12:31:57.503Z,36.55
2022-09-03T12:34:27.616Z,36.88
2022-09-03T12:36:56.924Z,37.37
2022-09-03T12:42:25.046Z,38.64
2022-09-03T12:44:53.805Z,39.12
2022-09-03T12:47:40.368Z,39.46
2022-09-03T12:50:14.407Z,39.87
2022-09-03T12:52:47.568Z,40.32
2022-09-03T12:55:32.312Z,40.84
2022-09-03T12:58:13.424Z,41.39
2022-09-03T13:00:50.011Z,42.00
2022-09-03T13:03:23.780Z,42.46
2022-09-03T13:05:57.822Z,42.89
2022-09-03T13:08:30.991Z,43.29
2022-09-03T13:11:03.906Z,43.48
2022-09-03T13:13:35.310Z,43.82
2022-09-03T13:16:31.186Z,44.21
2022-09-03T13:19:10.836Z,44.46
2022-09-03T13:21:51.581Z,44.45
2022-09-03T13:24:41.321Z,44.30
2022-09-03T13:27:22.967Z,44.11
2022-09-03T13:30:06.088Z,43.82
2022-09-03T13:32:52.881Z,43.51
2022-09-03T13:35:32.454Z,43.06
2022-09-03T13:38:16.561Z,42.60
2022-09-03T13:40:51.807Z,42.31
2022-09-03T13:43:33.670Z,42.13
2022-09-03T13:46:08.771Z,41.96
2022-09-03T13:48:58.838Z,42.08
2022-09-03T13:51:31.931Z,42.37
2022-09-03T13:54:13.495Z,42.68
2022-09-03T13:56:57.882Z,42.85
2022-09-03T13:59:37.443Z,42.72
2022-09-03T14:02:29.238Z,42.30
2022-09-03T14:05:08.000Z,41.87
2022-09-03T14:07:55.448Z,41.57
2022-09-03T14:10:39.976Z,41.66
2022-09-03T14:13:22.094Z,41.98
2022-09-03T14:15:59.212Z,42.45
2022-09-03T14:18:44.149Z,43.01
2022-09-03T14:21:19.334Z,43.42
2022-09-03T14:23:56.189Z,43.67
2022-09-03T14:26:39.155Z,43.78
2022-09-03T14:29:17.407Z,43.66
2022-09-03T14:32:30.232Z,43.02
2022-09-03T14:35:24.115Z,42.35
2022-09-03T14:38:31.772Z,41.62
2022-09-03T14:41:07.916Z,40.96
2022-09-03T14:44:17.927Z,40.06
2022-09-03T14:47:04.631Z,39.37
2022-09-03T14:50:10.774Z,38.60
2022-09-03T14:53:09.410Z,37.97
2022-09-03T14:56:15.370Z,37.33
2022-09-03T14:59:10.662Z,36.79
2022-09-03T15:01:39.963Z,36.39
2022-09-03T15:04:50.440Z,35.98
2022-09-03T15:07:32.241Z,35.55
2022-09-03T15:10:13.922Z,35.19
2022-09-03T15:12:47.726Z,34.90
2022-09-03T15:15:24.421Z,34.58
2022-09-03T15:18:05.543Z,34.29
2022-09-03T15:20:46.118Z,34.05
2022-09-03T15:23:26.962Z,33.85
2022-09-03T15:26:44.201Z,33.68
2022-09-03T15:29:38.571Z,33.57
2022-09-03T15:32:22.231Z,33.45
2022-09-03T15:35:06.435Z,33.31
2022-09-03T15:37:46.900Z,33.13
2022-09-03T15:40:32.331Z,32.91
2022-09-03T15:43:09.895Z,32.72
2022-09-03T15:45:43.447Z,32.51
2022-09-03T15:48:33.562Z,32.31
2022-09-03T15:51:17.349Z,32.18
2022-09-03T15:53:55.782Z,32.08
2022-09-03T15:56:30.184Z,31.99
2022-09-03T15:59:04.787Z,31.90
2022-09-03T16:01:51.181Z,31.81
2022-09-03T16:04:50.587Z,31.71
2022-09-03T16:07:27.392Z,31.68
2022-09-03T16:10:26.190Z,31.59
2022-09-03T16:13:06.958Z,31.47
2022-09-03T16:15:42.780Z,31.37
2022-09-03T16:18:23.936Z,31.23
2022-09-03T16:21:02.579Z,31.12
2022-09-03T16:23:39.904Z,31.01
2022-09-03T16:26:15.625Z,30.89
2022-09-03T16:28:53.267Z,30.81
2022-09-03T16:31:39.954Z,30.69
2022-09-03T16:34:22.038Z,30.62
2022-09-03T16:37:04.639Z,30.49
2022-09-03T16:39:50.087Z,30.38
2022-09-03T16:42:29.229Z,30.28
2022-09-03T16:45:18.115Z,30.16
2022-09-03T16:48:05.932Z,30.08
2022-09-03T16:50:53.238Z,29.97
2022-09-03T16:53:34.028Z,29.88
2022-09-03T16:56:27.581Z,29.78
2022-09-03T16:59:08.835Z,29.70
2022-09-03T17:01:57.603Z,29.61
2022-09-03T17:05:14.346Z,29.51
2022-09-03T17:08:05.117Z,29.44
2022-09-03T17:10:45.332Z,29.38
2022-09-03T17:13:46.658Z,29.31
2022-09-03T17:16:30.979Z,29.28
2022-09-03T17:19:08.733Z,29.25
2022-09-03T17:21:49.180Z,29.20
2022-09-03T17:24:45.166Z,29.12
2022-09-03T17:27:50.860Z,29.09
2022-09-03T17:30:30.852Z,29.05
2022-09-03T17:33:35.213Z,28.98
2022-09-03T17:36:14.379Z,28.94
2022-09-03T17:39:27.404Z,28.87
2022-09-03T17:42:01.995Z,28.86
2022-09-03T17:44:49.045Z,28.80
2022-09-03T17:47:43.349Z,28.76
2022-09-03T17:50:24.271Z,28.74
2022-09-03T17:52:57.921Z,28.72
2022-09-03T17:55:35.041Z,28.67
2022-09-03T17:58:14.980Z,28.63
2022-09-03T18:00:58.042Z,28.59
2022-09-03T18:03:33.361Z,28.58
2022-09-03T18:06:07.308Z,28.57
2022-09-03T18:08:47.149Z,28.52
2022-09-03T18:11:21.057Z,28.49
2022-09-03T18:13:59.098Z,28.44
2022-09-03T18:16:32.754Z,28.41
2022-09-03T18:19:18.335Z,28.36
2022-09-03T18:22:07.847Z,28.30
2022-09-03T18:25:01.952Z,28.23
2022-09-03T18:27:57.500Z,28.17
2022-09-03T18:30:44.394Z,28.10
2022-09-03T18:33:38.429Z,28.02
2022-09-03T18:36:25.520Z,27.96
2022-09-03T18:39:11.943Z,27.89
2022-09-03T18:42:19.210Z,27.80
2022-09-03T18:45:23.029Z,27.73
2022-09-03T18:48:30.661Z,27.67
2022-09-03T18:51:31.326Z,27.62
2022-09-03T18:54:56.951Z,27.56
2022-09-03T18:57:45.176Z,27.52
2022-09-03T19:00:34.179Z,27.47
2022-09-03T19:03:48.056Z,27.41
2022-09-03T19:06:51.198Z,27.38
2022-09-03T19:09:56.044Z,27.33
2022-09-03T19:13:02.685Z,27.29
2022-09-03T19:15:53.859Z,27.27
2022-09-03T19:19:02.580Z,27.20
2022-09-03T19:21:59.668Z,27.19
2022-09-03T19:24:49.516Z,27.17
2022-09-03T19:27:56.965Z,27.12
2022-09-03T19:30:56.466Z,27.09
2022-09-03T19:33:54.520Z,27.08
2022-09-03T19:36:52.133Z,27.04
2022-09-03T19:40:00.287Z,27.00
2022-09-03T19:43:02.484Z,26.96
2022-09-03T19:46:04.108Z,26.92
2022-09-03T19:49:05.017Z,26.89
2022-09-03T19:51:58.564Z,26.86
2022-09-03T19:54:47.822Z,26.81
2022-09-03T19:57:37.631Z,26.78
2022-09-03T20:00:29.413Z,26.74
2022-09-03T20:03:20.961Z,26.72
2022-09-03T20:06:10.966Z,26.68
2022-09-03T20:08:57.751Z,26.65
2022-09-03T20:11:29.845Z,26.62
2022-09-03T20:14:16.001Z,26.60
2022-09-03T20:17:00.178Z,26.55
2022-09-03T20:19:41.351Z,26.52
2022-09-03T20:22:24.510Z,26.48
2022-09-03T20:25:14.075Z,26.41
2022-09-03T20:27:57.111Z,26.38
2022-09-03T20:30:34.142Z,26.34
2022-09-03T20:33:19.045Z,26.28
2022-09-03T20:36:07.018Z,26.23
2022-09-03T20:39:04.602Z,26.16
2022-09-03T20:41:44.628Z,26.14
2022-09-03T20:44:52.710Z,26.07
2022-09-03T20:47:46.950Z,26.03
2022-09-03T20:50:32.697Z,26.01
2022-09-03T20:53:15.388Z,25.98
2022-09-03T20:55:45.952Z,25.98
2022-09-03T20:58:22.221Z,25.95
2022-09-03T21:01:00.997Z,25.92
2022-09-03T21:03:37.265Z,25.89
2022-09-03T21:06:21.647Z,25.84
2022-09-03T21:09:07.634Z,25.81
2022-09-03T21:11:44.885Z,25.78
2022-09-03T21:14:33.610Z,25.75
2022-09-03T21:17:25.822Z,25.72
2022-09-03T21:20:18.285Z,25.72
2022-09-03T21:23:02.741Z,25.73
2022-09-03T21:25:38.080Z,25.73
2022-09-03T21:28:14.202Z,25.74
2022-09-03T21:30:49.894Z,25.74
2022-09-03T21:33:25.142Z,25.77
2022-09-03T21:36:04.054Z,25.77
2022-09-03T21:38:37.397Z,25.78
2022-09-03T21:41:18.388Z,25.78
2022-09-03T21:43:55.996Z,25.82
2022-09-03T21:46:32.250Z,25.83
2022-09-03T21:49:07.673Z,25.86
2022-09-03T21:51:45.988Z,25.88
2022-09-03T21:54:21.651Z,25.91
2022-09-03T21:57:14.188Z,25.92
2022-09-03T22:00:17.723Z,25.92
2022-09-03T22:02:47.386Z,25.96
2022-09-03T22:05:19.089Z,25.97
2022-09-03T22:08:08.455Z,25.96
2022-09-03T22:10:45.826Z,25.99
2022-09-03T22:13:22.542Z,25.97
2022-09-03T22:15:56.788Z,25.97
2022-09-03T22:18:29.405Z,25.96
2022-09-03T22:21:13.406Z,25.93
2022-09-03T22:24:07.577Z,25.91
2022-09-03T22:26:49.205Z,25.90
2022-09-03T22:29:38.131Z,25.85
2022-09-03T22:32:24.968Z,25.87
2022-09-03T22:35:20.618Z,25.86
2022-09-03T22:38:11.498Z,25.84
2022-09-03T22:40:46.828Z,25.85
2022-09-03T22:43:38.572Z,25.84
2022-09-03T22:46:12.950Z,25.83
2022-09-03T22:49:11.836Z,25.78
2022-09-03T22:52:04.793Z,25.75
2022-09-03T22:54:53.062Z,25.72
2022-09-03T22:57:26.474Z,25.72
2022-09-03T23:00:03.573Z,25.67
2022-09-03T23:02:33.542Z,25.65
2022-09-03T23:05:08.544Z,25.62
2022-09-03T23:07:54.079Z,25.57
2022-09-03T23:10:30.274Z,25.53
2022-09-03T23:13:09.273Z,25.49
2022-09-03T23:15:42.265Z,25.46
2022-09-03T23:18:17.852Z,25.41
2022-09-03T23:20:56.571Z,25.38
2022-09-03T23:23:31.990Z,25.33
2022-09-03T23:26:13.696Z,25.28
2022-09-03T23:28:48.755Z,25.26
2022-09-03T23:31:25.138Z,25.21
2022-09-03T23:33:55.906Z,25.18
2022-09-03T23:37:05.638Z,25.12
2022-09-03T23:39:54.250Z,25.03
2022-09-03T23:42:35.606Z,25.00
2022-09-03T23:45:17.521Z,24.94
2022-09-03T23:47:55.139Z,24.90
2022-09-03T23:50:33.223Z,24.86
2022-09-03T23:53:22.352Z,24.84
2022-09-03T23:56:08.570Z,24.83
2022-09-03T23:58:56.590Z,24.81
